sensor_id;sensor_type;location;lat;lon;timestamp;temperature;humidity
6462;DHT22;3264;42.862;25.098;2023-04-25T00:00:20;10.90;99.90
6462;DHT22;3264;42.862;25.098;2023-04-25T00:02:50;10.90;99.90
6462;DHT22;3264;42.862;25.098;2023-04-25T00:05:18;10.90;99.90
6462;DHT22;3264;42.862;25.098;2023-04-25T00:07:45;10.90;99.90
6462;DHT22;3264;42.862;25.098;2023-04-25T00:10:13;10.90;99.90
6462;DHT22;3264;42.862;25.098;2023-04-25T00:12:45;10.90;99.90
6462;DHT22;3264;42.862;25.098;2023-04-25T00:15:13;10.90;99.90
6462;DHT22;3264;42.862;25.098;2023-04-25T00:17:42;11.00;99.90
6462;DHT22;3264;42.862;25.098;2023-04-25T00:20:13;11.00;99.90
6462;DHT22;3264;42.862;25.098;2023-04-25T00:22:42;11.00;99.90
6462;DHT22;3264;42.862;25.098;2023-04-25T00:25:15;10.90;99.90
6462;DHT22;3264;42.862;25.098;2023-04-25T00:27:47;10.90;99.90
6462;DHT22;3264;42.862;25.098;2023-04-25T00:30:15;11.00;99.90
6462;DHT22;3264;42.862;25.098;2023-04-25T00:32:51;11.00;99.90
6462;DHT22;3264;42.862;25.098;2023-04-25T00:35:22;11.00;99.90
6462;DHT22;3264;42.862;25.098;2023-04-25T00:37:52;10.90;99.90
6462;DHT22;3264;42.862;25.098;2023-04-25T00:40:22;10.90;99.90
6462;DHT22;3264;42.862;25.098;2023-04-25T00:42:53;10.90;99.90
6462;DHT22;3264;42.862;25.098;2023-04-25T00:45:21;10.80;99.90
6462;DHT22;3264;42.862;25.098;2023-04-25T00:47:48;10.80;99.90
6462;DHT22;3264;42.862;25.098;2023-04-25T00:50:16;10.80;99.90
6462;DHT22;3264;42.862;25.098;2023-04-25T00:52:45;10.80;99.90
6462;DHT22;3264;42.862;25.098;2023-04-25T00:55:15;10.70;99.90
6462;DHT22;3264;42.862;25.098;2023-04-25T00:57:43;10.70;99.90
6462;DHT22;3264;42.862;25.098;2023-04-25T01:00:17;10.70;99.90
6462;DHT22;3264;42.862;25.098;2023-04-25T01:02:49;10.80;99.90
6462;DHT22;3264;42.862;25.098;2023-04-25T01:05:25;10.80;99.90
6462;DHT22;3264;42.862;25.098;2023-04-25T01:07:54;10.80;99.90
6462;DHT22;3264;42.862;25.098;2023-04-25T01:10:24;10.70;99.90
6462;DHT22;3264;42.862;25.098;2023-04-25T01:12:55;10.70;99.90
6462;DHT22;3264;42.862;25.098;2023-04-25T01:15:24;10.70;99.90
6462;DHT22;3264;42.862;25.098;2023-04-25T01:17:52;10.80;99.90
6462;DHT22;3264;42.862;25.098;2023-04-25T01:20:22;10.80;99.90
6462;DHT22;3264;42.862;25.098;2023-04-25T01:22:53;10.70;99.90
6462;DHT22;3264;42.862;25.098;2023-04-25T01:25:22;10.80;99.90
6462;DHT22;3264;42.862;25.098;2023-04-25T01:27:51;10.70;99.90
6462;DHT22;3264;42.862;25.098;2023-04-25T01:30:26;10.60;99.90
6462;DHT22;3264;42.862;25.098;2023-04-25T01:32:57;10.60;99.90
6462;DHT22;3264;42.862;25.098;2023-04-25T01:35:27;10.50;99.90
6462;DHT22;3264;42.862;25.098;2023-04-25T01:37:57;10.50;99.90
6462;DHT22;3264;42.862;25.098;2023-04-25T01:40:26;10.40;99.90
6462;DHT22;3264;42.862;25.098;2023-04-25T01:43:16;10.40;99.90
6462;DHT22;3264;42.862;25.098;2023-04-25T01:45:46;10.40;99.90
6462;DHT22;3264;42.862;25.098;2023-04-25T01:48:14;10.40;99.90
6462;DHT22;3264;42.862;25.098;2023-04-25T01:50:44;10.40;99.90
6462;DHT22;3264;42.862;25.098;2023-04-25T01:53:16;10.40;99.90
6462;DHT22;3264;42.862;25.098;2023-04-25T01:55:47;10.40;99.90
6462;DHT22;3264;42.862;25.098;2023-04-25T01:58:24;10.40;99.90
6462;DHT22;3264;42.862;25.098;2023-04-25T02:00:55;10.40;99.90
6462;DHT22;3264;42.862;25.098;2023-04-25T02:03:31;10.40;99.90
6462;DHT22;3264;42.862;25.098;2023-04-25T02:06:00;10.40;99.90
6462;DHT22;3264;42.862;25.098;2023-04-25T02:08:29;10.30;99.90
6462;DHT22;3264;42.862;25.098;2023-04-25T02:10:58;10.30;99.90
6462;DHT22;3264;42.862;25.098;2023-04-25T02:13:27;10.30;99.90
6462;DHT22;3264;42.862;25.098;2023-04-25T02:15:55;10.20;99.90
6462;DHT22;3264;42.862;25.098;2023-04-25T02:18:24;10.20;99.90
6462;DHT22;3264;42.862;25.098;2023-04-25T02:20:53;10.20;99.90
6462;DHT22;3264;42.862;25.098;2023-04-25T02:23:22;10.20;99.90
6462;DHT22;3264;42.862;25.098;2023-04-25T02:25:52;10.20;99.90
6462;DHT22;3264;42.862;25.098;2023-04-25T02:28:23;10.20;99.90
6462;DHT22;3264;42.862;25.098;2023-04-25T02:30:51;10.20;99.90
6462;DHT22;3264;42.862;25.098;2023-04-25T02:33:20;10.20;99.90
6462;DHT22;3264;42.862;25.098;2023-04-25T02:35:49;10.20;99.90
6462;DHT22;3264;42.862;25.098;2023-04-25T02:38:17;10.20;99.90
6462;DHT22;3264;42.862;25.098;2023-04-25T02:40:46;10.10;99.90
6462;DHT22;3264;42.862;25.098;2023-04-25T02:43:16;10.20;99.90
6462;DHT22;3264;42.862;25.098;2023-04-25T02:45:45;10.20;99.90
6462;DHT22;3264;42.862;25.098;2023-04-25T02:48:13;10.20;99.90
6462;DHT22;3264;42.862;25.098;2023-04-25T02:50:41;10.30;99.90
6462;DHT22;3264;42.862;25.098;2023-04-25T02:53:09;10.40;99.90
6462;DHT22;3264;42.862;25.098;2023-04-25T02:55:38;10.40;99.90
6462;DHT22;3264;42.862;25.098;2023-04-25T02:58:05;10.40;99.90
6462;DHT22;3264;42.862;25.098;2023-04-25T03:00:35;10.40;99.90
6462;DHT22;3264;42.862;25.098;2023-04-25T03:03:04;10.30;99.90
6462;DHT22;3264;42.862;25.098;2023-04-25T03:05:33;10.30;99.90
6462;DHT22;3264;42.862;25.098;2023-04-25T03:08:02;10.30;99.90
6462;DHT22;3264;42.862;25.098;2023-04-25T03:10:30;10.30;99.90
6462;DHT22;3264;42.862;25.098;2023-04-25T03:12:59;10.40;99.90
6462;DHT22;3264;42.862;25.098;2023-04-25T03:15:28;10.40;99.90
6462;DHT22;3264;42.862;25.098;2023-04-25T03:17:58;10.30;99.90
6462;DHT22;3264;42.862;25.098;2023-04-25T03:20:27;10.40;99.90
6462;DHT22;3264;42.862;25.098;2023-04-25T03:22:55;10.50;99.90
6462;DHT22;3264;42.862;25.098;2023-04-25T03:25:23;10.40;99.90
6462;DHT22;3264;42.862;25.098;2023-04-25T03:27:52;10.40;99.90
6462;DHT22;3264;42.862;25.098;2023-04-25T03:30:20;10.30;99.90
6462;DHT22;3264;42.862;25.098;2023-04-25T03:32:47;10.40;99.90
6462;DHT22;3264;42.862;25.098;2023-04-25T03:35:17;10.30;99.90
6462;DHT22;3264;42.862;25.098;2023-04-25T03:37:44;10.30;99.90
6462;DHT22;3264;42.862;25.098;2023-04-25T03:40:12;10.40;99.90
6462;DHT22;3264;42.862;25.098;2023-04-25T03:42:40;10.30;99.90
6462;DHT22;3264;42.862;25.098;2023-04-25T03:45:09;10.30;99.90
6462;DHT22;3264;42.862;25.098;2023-04-25T03:47:37;10.30;99.90
6462;DHT22;3264;42.862;25.098;2023-04-25T03:50:05;10.40;99.90
6462;DHT22;3264;42.862;25.098;2023-04-25T03:52:35;10.30;99.90
6462;DHT22;3264;42.862;25.098;2023-04-25T03:55:03;10.40;99.90
6462;DHT22;3264;42.862;25.098;2023-04-25T03:57:30;10.30;99.90
6462;DHT22;3264;42.862;25.098;2023-04-25T03:59:59;10.40;99.90
6462;DHT22;3264;42.862;25.098;2023-04-25T04:02:28;10.30;99.90
6462;DHT22;3264;42.862;25.098;2023-04-25T04:04:56;10.30;99.90
6462;DHT22;3264;42.862;25.098;2023-04-25T04:07:25;10.30;99.90
6462;DHT22;3264;42.862;25.098;2023-04-25T04:09:54;10.30;99.90
6462;DHT22;3264;42.862;25.098;2023-04-25T04:12:23;10.30;99.90
6462;DHT22;3264;42.862;25.098;2023-04-25T04:14:51;10.30;99.90
6462;DHT22;3264;42.862;25.098;2023-04-25T04:17:19;10.40;99.90
6462;DHT22;3264;42.862;25.098;2023-04-25T04:19:49;10.40;99.90
6462;DHT22;3264;42.862;25.098;2023-04-25T04:22:16;10.40;99.90
6462;DHT22;3264;42.862;25.098;2023-04-25T04:24:46;10.40;99.90
6462;DHT22;3264;42.862;25.098;2023-04-25T04:27:16;10.40;99.90
6462;DHT22;3264;42.862;25.098;2023-04-25T04:29:46;10.40;99.90
6462;DHT22;3264;42.862;25.098;2023-04-25T04:32:15;10.40;99.90
6462;DHT22;3264;42.862;25.098;2023-04-25T04:34:43;10.50;99.90
6462;DHT22;3264;42.862;25.098;2023-04-25T04:37:11;10.50;99.90
6462;DHT22;3264;42.862;25.098;2023-04-25T04:39:39;10.60;99.90
6462;DHT22;3264;42.862;25.098;2023-04-25T04:42:18;10.70;99.90
6462;DHT22;3264;42.862;25.098;2023-04-25T04:44:48;10.80;99.90
6462;DHT22;3264;42.862;25.098;2023-04-25T04:47:18;10.90;99.90
6462;DHT22;3264;42.862;25.098;2023-04-25T04:49:46;10.90;99.90
6462;DHT22;3264;42.862;25.098;2023-04-25T04:52:15;11.00;99.90
6462;DHT22;3264;42.862;25.098;2023-04-25T04:54:43;11.10;99.90
6462;DHT22;3264;42.862;25.098;2023-04-25T04:57:12;11.10;99.90
6462;DHT22;3264;42.862;25.098;2023-04-25T04:59:42;11.10;99.90
6462;DHT22;3264;42.862;25.098;2023-04-25T05:02:10;11.30;99.90
6462;DHT22;3264;42.862;25.098;2023-04-25T05:04:37;11.30;99.90
6462;DHT22;3264;42.862;25.098;2023-04-25T05:07:06;11.40;99.90
6462;DHT22;3264;42.862;25.098;2023-04-25T05:09:34;11.40;99.90
6462;DHT22;3264;42.862;25.098;2023-04-25T05:12:01;11.50;99.90
6462;DHT22;3264;42.862;25.098;2023-04-25T05:14:30;11.70;99.90
6462;DHT22;3264;42.862;25.098;2023-04-25T05:17:01;11.90;99.90
6462;DHT22;3264;42.862;25.098;2023-04-25T05:19:31;11.90;99.90
6462;DHT22;3264;42.862;25.098;2023-04-25T05:21:59;12.00;99.90
6462;DHT22;3264;42.862;25.098;2023-04-25T05:24:27;11.90;99.90
6462;DHT22;3264;42.862;25.098;2023-04-25T05:26:55;12.00;99.90
6462;DHT22;3264;42.862;25.098;2023-04-25T05:29:24;12.00;99.90
6462;DHT22;3264;42.862;25.098;2023-04-25T05:31:52;12.00;99.90
6462;DHT22;3264;42.862;25.098;2023-04-25T05:34:21;12.00;99.90
6462;DHT22;3264;42.862;25.098;2023-04-25T05:36:49;12.10;99.90
6462;DHT22;3264;42.862;25.098;2023-04-25T05:39:17;12.20;99.90
6462;DHT22;3264;42.862;25.098;2023-04-25T05:41:44;12.30;99.90
6462;DHT22;3264;42.862;25.098;2023-04-25T05:44:13;12.30;99.90
6462;DHT22;3264;42.862;25.098;2023-04-25T05:46:41;12.40;99.90
6462;DHT22;3264;42.862;25.098;2023-04-25T05:49:09;12.40;99.90
6462;DHT22;3264;42.862;25.098;2023-04-25T05:51:38;12.60;99.90
6462;DHT22;3264;42.862;25.098;2023-04-25T05:54:08;12.60;99.90
6462;DHT22;3264;42.862;25.098;2023-04-25T05:56:36;12.90;99.90
6462;DHT22;3264;42.862;25.098;2023-04-25T05:59:04;13.10;99.90
6462;DHT22;3264;42.862;25.098;2023-04-25T06:01:32;13.20;99.90
6462;DHT22;3264;42.862;25.098;2023-04-25T06:04:00;12.90;99.90
6462;DHT22;3264;42.862;25.098;2023-04-25T06:06:28;13.10;99.90
6462;DHT22;3264;42.862;25.098;2023-04-25T06:08:58;13.10;99.90
6462;DHT22;3264;42.862;25.098;2023-04-25T06:11:27;13.60;99.90
6462;DHT22;3264;42.862;25.098;2023-04-25T06:13:56;14.20;99.90
6462;DHT22;3264;42.862;25.098;2023-04-25T06:16:24;14.30;99.90
6462;DHT22;3264;42.862;25.098;2023-04-25T06:18:53;14.10;99.90
6462;DHT22;3264;42.862;25.098;2023-04-25T06:21:22;14.40;99.90
6462;DHT22;3264;42.862;25.098;2023-04-25T06:23:49;14.60;99.90
6462;DHT22;3264;42.862;25.098;2023-04-25T06:26:19;14.50;99.90
6462;DHT22;3264;42.862;25.098;2023-04-25T06:28:48;14.10;99.90
6462;DHT22;3264;42.862;25.098;2023-04-25T06:31:16;14.50;99.90
6462;DHT22;3264;42.862;25.098;2023-04-25T06:33:43;15.00;99.90
6462;DHT22;3264;42.862;25.098;2023-04-25T06:36:11;15.30;99.90
6462;DHT22;3264;42.862;25.098;2023-04-25T06:38:39;16.20;99.90
6462;DHT22;3264;42.862;25.098;2023-04-25T06:41:06;16.40;99.90
6462;DHT22;3264;42.862;25.098;2023-04-25T06:43:36;16.00;99.90
6462;DHT22;3264;42.862;25.098;2023-04-25T06:46:04;15.80;99.90
6462;DHT22;3264;42.862;25.098;2023-04-25T06:48:33;15.60;99.90
6462;DHT22;3264;42.862;25.098;2023-04-25T06:51:02;15.50;99.90
6462;DHT22;3264;42.862;25.098;2023-04-25T06:53:30;15.60;99.90
6462;DHT22;3264;42.862;25.098;2023-04-25T06:55:58;15.90;99.90
6462;DHT22;3264;42.862;25.098;2023-04-25T06:58:25;16.00;99.90
6462;DHT22;3264;42.862;25.098;2023-04-25T07:00:55;16.20;99.90
6462;DHT22;3264;42.862;25.098;2023-04-25T07:03:22;16.20;99.90
6462;DHT22;3264;42.862;25.098;2023-04-25T07:05:52;16.20;99.90
6462;DHT22;3264;42.862;25.098;2023-04-25T07:08:22;16.00;99.90
6462;DHT22;3264;42.862;25.098;2023-04-25T07:10:51;15.90;99.90
6462;DHT22;3264;42.862;25.098;2023-04-25T07:13:19;15.70;99.90
6462;DHT22;3264;42.862;25.098;2023-04-25T07:15:47;15.70;99.90
6462;DHT22;3264;42.862;25.098;2023-04-25T07:18:16;16.50;99.90
6462;DHT22;3264;42.862;25.098;2023-04-25T07:20:44;16.10;99.90
6462;DHT22;3264;42.862;25.098;2023-04-25T07:23:12;16.90;99.90
6462;DHT22;3264;42.862;25.098;2023-04-25T07:25:41;17.20;99.90
6462;DHT22;3264;42.862;25.098;2023-04-25T07:28:10;16.80;99.90
6462;DHT22;3264;42.862;25.098;2023-04-25T07:30:37;17.40;99.90
6462;DHT22;3264;42.862;25.098;2023-04-25T07:33:06;17.80;99.90
6462;DHT22;3264;42.862;25.098;2023-04-25T07:35:36;17.90;99.90
6462;DHT22;3264;42.862;25.098;2023-04-25T07:38:14;18.10;99.90
6462;DHT22;3264;42.862;25.098;2023-04-25T07:40:42;17.60;99.90
6462;DHT22;3264;42.862;25.098;2023-04-25T07:43:10;17.60;99.90
6462;DHT22;3264;42.862;25.098;2023-04-25T07:45:42;18.80;99.90
6462;DHT22;3264;42.862;25.098;2023-04-25T07:48:10;18.60;99.90
6462;DHT22;3264;42.862;25.098;2023-04-25T07:50:40;20.00;99.90
6462;DHT22;3264;42.862;25.098;2023-04-25T07:53:08;20.60;99.70
6462;DHT22;3264;42.862;25.098;2023-04-25T07:55:36;20.90;99.40
6462;DHT22;3264;42.862;25.098;2023-04-25T07:58:07;21.60;99.90
6462;DHT22;3264;42.862;25.098;2023-04-25T08:00:34;20.90;92.60
6462;DHT22;3264;42.862;25.098;2023-04-25T08:03:06;21.00;94.20
6462;DHT22;3264;42.862;25.098;2023-04-25T08:05:34;21.20;93.00
6462;DHT22;3264;42.862;25.098;2023-04-25T08:08:04;20.40;90.80
6462;DHT22;3264;42.862;25.098;2023-04-25T08:10:33;20.40;94.50
6462;DHT22;3264;42.862;25.098;2023-04-25T08:13:01;20.00;91.70
6462;DHT22;3264;42.862;25.098;2023-04-25T08:15:29;20.00;93.50
6462;DHT22;3264;42.862;25.098;2023-04-25T08:17:57;19.60;95.20
6462;DHT22;3264;42.862;25.098;2023-04-25T08:20:26;19.20;95.10
6462;DHT22;3264;42.862;25.098;2023-04-25T08:22:55;18.80;95.70
6462;DHT22;3264;42.862;25.098;2023-04-25T08:25:27;18.70;93.70
6462;DHT22;3264;42.862;25.098;2023-04-25T08:27:55;18.50;96.00
6462;DHT22;3264;42.862;25.098;2023-04-25T08:30:27;18.90;96.90
6462;DHT22;3264;42.862;25.098;2023-04-25T08:32:56;19.00;92.60
6462;DHT22;3264;42.862;25.098;2023-04-25T08:35:23;19.30;95.30
6462;DHT22;3264;42.862;25.098;2023-04-25T08:37:51;18.60;93.00
6462;DHT22;3264;42.862;25.098;2023-04-25T08:40:24;18.80;96.50
6462;DHT22;3264;42.862;25.098;2023-04-25T08:42:57;18.90;96.10
6462;DHT22;3264;42.862;25.098;2023-04-25T08:45:27;18.00;95.00
6462;DHT22;3264;42.862;25.098;2023-04-25T08:47:57;18.40;98.80
6462;DHT22;3264;42.862;25.098;2023-04-25T08:50:27;18.70;97.90
6462;DHT22;3264;42.862;25.098;2023-04-25T08:52:57;18.80;97.60
6462;DHT22;3264;42.862;25.098;2023-04-25T08:55:29;18.50;97.60
6462;DHT22;3264;42.862;25.098;2023-04-25T08:57:58;17.90;95.00
6462;DHT22;3264;42.862;25.098;2023-04-25T09:00:27;17.00;99.90
6462;DHT22;3264;42.862;25.098;2023-04-25T09:02:56;16.80;99.90
6462;DHT22;3264;42.862;25.098;2023-04-25T09:05:25;16.20;99.90
6462;DHT22;3264;42.862;25.098;2023-04-25T09:07:54;14.80;99.90
6462;DHT22;3264;42.862;25.098;2023-04-25T09:10:23;13.30;99.90
6462;DHT22;3264;42.862;25.098;2023-04-25T09:13:05;13.30;99.90
6462;DHT22;3264;42.862;25.098;2023-04-25T09:15:47;13.60;99.90
6462;DHT22;3264;42.862;25.098;2023-04-25T09:18:22;13.60;99.90
6462;DHT22;3264;42.862;25.098;2023-04-25T09:20:52;14.20;99.90
6462;DHT22;3264;42.862;25.098;2023-04-25T09:23:22;14.10;99.90
6462;DHT22;3264;42.862;25.098;2023-04-25T09:25:53;14.30;99.90
6462;DHT22;3264;42.862;25.098;2023-04-25T09:28:27;14.60;99.90
6462;DHT22;3264;42.862;25.098;2023-04-25T09:30:56;13.70;99.90
6462;DHT22;3264;42.862;25.098;2023-04-25T09:33:29;14.80;99.90
6462;DHT22;3264;42.862;25.098;2023-04-25T09:36:03;14.40;99.90
6462;DHT22;3264;42.862;25.098;2023-04-25T09:38:39;15.40;99.90
6462;DHT22;3264;42.862;25.098;2023-04-25T09:41:09;16.00;99.90
6462;DHT22;3264;42.862;25.098;2023-04-25T09:43:39;16.70;99.90
6462;DHT22;3264;42.862;25.098;2023-04-25T09:46:09;16.30;99.90
6462;DHT22;3264;42.862;25.098;2023-04-25T09:48:37;16.80;99.90
6462;DHT22;3264;42.862;25.098;2023-04-25T09:51:06;16.30;99.90
6462;DHT22;3264;42.862;25.098;2023-04-25T09:53:37;16.60;99.90
6462;DHT22;3264;42.862;25.098;2023-04-25T09:56:07;16.10;99.90
6462;DHT22;3264;42.862;25.098;2023-04-25T09:58:35;16.40;99.90
6462;DHT22;3264;42.862;25.098;2023-04-25T10:01:06;17.20;99.90
6462;DHT22;3264;42.862;25.098;2023-04-25T10:03:34;17.10;99.90
6462;DHT22;3264;42.862;25.098;2023-04-25T10:06:05;16.80;99.90
6462;DHT22;3264;42.862;25.098;2023-04-25T10:08:36;16.40;99.90
6462;DHT22;3264;42.862;25.098;2023-04-25T10:11:09;17.00;99.90
6462;DHT22;3264;42.862;25.098;2023-04-25T10:13:40;17.40;99.90
6462;DHT22;3264;42.862;25.098;2023-04-25T10:16:11;17.60;99.90
6462;DHT22;3264;42.862;25.098;2023-04-25T10:18:40;17.50;99.90
6462;DHT22;3264;42.862;25.098;2023-04-25T10:21:10;17.60;99.90
6462;DHT22;3264;42.862;25.098;2023-04-25T10:23:40;17.60;99.90
6462;DHT22;3264;42.862;25.098;2023-04-25T10:26:08;17.50;99.90
6462;DHT22;3264;42.862;25.098;2023-04-25T10:28:57;17.70;99.90
6462;DHT22;3264;42.862;25.098;2023-04-25T10:31:27;18.00;99.90
6462;DHT22;3264;42.862;25.098;2023-04-25T10:33:58;18.40;99.90
6462;DHT22;3264;42.862;25.098;2023-04-25T10:36:31;18.80;99.90
6462;DHT22;3264;42.862;25.098;2023-04-25T10:39:10;19.40;99.90
6462;DHT22;3264;42.862;25.098;2023-04-25T10:41:47;19.60;94.80
6462;DHT22;3264;42.862;25.098;2023-04-25T10:44:15;19.90;99.90
6462;DHT22;3264;42.862;25.098;2023-04-25T10:46:46;20.10;96.70
6462;DHT22;3264;42.862;25.098;2023-04-25T10:49:31;19.80;91.90
6462;DHT22;3264;42.862;25.098;2023-04-25T10:52:13;20.00;94.90
6462;DHT22;3264;42.862;25.098;2023-04-25T10:54:41;20.70;99.90
6462;DHT22;3264;42.862;25.098;2023-04-25T10:57:27;19.30;92.90
6462;DHT22;3264;42.862;25.098;2023-04-25T11:00:09;18.80;86.60
6462;DHT22;3264;42.862;25.098;2023-04-25T11:02:43;18.10;89.90
6462;DHT22;3264;42.862;25.098;2023-04-25T11:05:32;18.90;99.90
6462;DHT22;3264;42.862;25.098;2023-04-25T11:08:02;19.10;97.60
6462;DHT22;3264;42.862;25.098;2023-04-25T11:10:40;19.00;92.20
6462;DHT22;3264;42.862;25.098;2023-04-25T11:13:08;19.80;90.20
6462;DHT22;3264;42.862;25.098;2023-04-25T11:15:37;19.00;89.90
6462;DHT22;3264;42.862;25.098;2023-04-25T11:18:07;19.30;89.50
6462;DHT22;3264;42.862;25.098;2023-04-25T11:20:35;19.50;91.10
6462;DHT22;3264;42.862;25.098;2023-04-25T11:23:04;19.90;97.80
6462;DHT22;3264;42.862;25.098;2023-04-25T11:25:33;19.50;88.30
6462;DHT22;3264;42.862;25.098;2023-04-25T11:28:01;19.50;94.60
6462;DHT22;3264;42.862;25.098;2023-04-25T11:30:48;19.90;91.60
6462;DHT22;3264;42.862;25.098;2023-04-25T11:33:29;20.80;92.40
6462;DHT22;3264;42.862;25.098;2023-04-25T11:35:58;21.20;88.40
6462;DHT22;3264;42.862;25.098;2023-04-25T11:38:26;22.10;92.50
6462;DHT22;3264;42.862;25.098;2023-04-25T11:40:54;22.00;86.20
6462;DHT22;3264;42.862;25.098;2023-04-25T11:43:22;22.60;91.10
6462;DHT22;3264;42.862;25.098;2023-04-25T11:45:51;22.40;88.00
6462;DHT22;3264;42.862;25.098;2023-04-25T11:48:19;21.30;89.70
6462;DHT22;3264;42.862;25.098;2023-04-25T11:50:49;20.40;92.10
6462;DHT22;3264;42.862;25.098;2023-04-25T11:53:18;19.70;92.10
6462;DHT22;3264;42.862;25.098;2023-04-25T11:55:47;18.90;93.40
6462;DHT22;3264;42.862;25.098;2023-04-25T11:58:15;18.60;93.90
6462;DHT22;3264;42.862;25.098;2023-04-25T12:00:44;17.60;96.40
6462;DHT22;3264;42.862;25.098;2023-04-25T12:03:12;16.30;99.90
6462;DHT22;3264;42.862;25.098;2023-04-25T12:05:40;15.90;99.90
6462;DHT22;3264;42.862;25.098;2023-04-25T12:15:09;15.00;99.90
6462;DHT22;3264;42.862;25.098;2023-04-25T12:17:39;15.00;99.90
6462;DHT22;3264;42.862;25.098;2023-04-25T12:20:08;14.90;99.90
6462;DHT22;3264;42.862;25.098;2023-04-25T12:22:36;15.20;99.90
6462;DHT22;3264;42.862;25.098;2023-04-25T12:25:05;15.90;99.90
6462;DHT22;3264;42.862;25.098;2023-04-25T12:27:33;16.50;99.90
6462;DHT22;3264;42.862;25.098;2023-04-25T12:30:04;17.50;99.90
6462;DHT22;3264;42.862;25.098;2023-04-25T12:32:34;17.70;99.90
6462;DHT22;3264;42.862;25.098;2023-04-25T12:35:05;17.20;99.90
6462;DHT22;3264;42.862;25.098;2023-04-25T12:37:33;16.90;99.90
6462;DHT22;3264;42.862;25.098;2023-04-25T12:40:01;17.20;99.90
6462;DHT22;3264;42.862;25.098;2023-04-25T12:42:31;17.20;99.90
6462;DHT22;3264;42.862;25.098;2023-04-25T12:45:00;17.10;99.90
6462;DHT22;3264;42.862;25.098;2023-04-25T12:47:30;16.20;99.90
6462;DHT22;3264;42.862;25.098;2023-04-25T12:50:01;16.00;99.90
6462;DHT22;3264;42.862;25.098;2023-04-25T12:52:31;16.00;99.90
6462;DHT22;3264;42.862;25.098;2023-04-25T12:54:59;16.40;99.90
6462;DHT22;3264;42.862;25.098;2023-04-25T12:57:27;16.20;99.90
6462;DHT22;3264;42.862;25.098;2023-04-25T12:59:55;16.00;99.90
6462;DHT22;3264;42.862;25.098;2023-04-25T13:02:22;16.30;99.90
6462;DHT22;3264;42.862;25.098;2023-04-25T13:04:53;16.70;99.90
6462;DHT22;3264;42.862;25.098;2023-04-25T13:07:21;16.60;99.90
6462;DHT22;3264;42.862;25.098;2023-04-25T13:09:49;17.60;99.90
6462;DHT22;3264;42.862;25.098;2023-04-25T13:12:18;18.50;98.80
6462;DHT22;3264;42.862;25.098;2023-04-25T13:14:46;17.90;94.10
6462;DHT22;3264;42.862;25.098;2023-04-25T13:17:14;19.10;97.90
6462;DHT22;3264;42.862;25.098;2023-04-25T13:19:42;19.10;96.80
6462;DHT22;3264;42.862;25.098;2023-04-25T13:22:12;19.40;97.90
6462;DHT22;3264;42.862;25.098;2023-04-25T13:24:42;20.10;99.90
6462;DHT22;3264;42.862;25.098;2023-04-25T13:27:11;19.90;94.60
6462;DHT22;3264;42.862;25.098;2023-04-25T13:29:39;19.90;95.60
6462;DHT22;3264;42.862;25.098;2023-04-25T13:32:19;20.10;95.60
6462;DHT22;3264;42.862;25.098;2023-04-25T13:34:47;19.30;96.00
6462;DHT22;3264;42.862;25.098;2023-04-25T13:37:17;18.40;95.40
6462;DHT22;3264;42.862;25.098;2023-04-25T13:39:47;17.60;95.70
6462;DHT22;3264;42.862;25.098;2023-04-25T13:42:14;17.40;98.10
6462;DHT22;3264;42.862;25.098;2023-04-25T13:44:43;16.90;97.50
6462;DHT22;3264;42.862;25.098;2023-04-25T13:47:12;16.80;99.80
6462;DHT22;3264;42.862;25.098;2023-04-25T13:49:41;16.70;99.90
6462;DHT22;3264;42.862;25.098;2023-04-25T13:52:09;16.70;99.90
6462;DHT22;3264;42.862;25.098;2023-04-25T13:54:39;16.30;99.90
6462;DHT22;3264;42.862;25.098;2023-04-25T13:57:08;16.40;99.90
6462;DHT22;3264;42.862;25.098;2023-04-25T13:59:38;16.20;99.90
6462;DHT22;3264;42.862;25.098;2023-04-25T14:02:07;15.30;99.90
6462;DHT22;3264;42.862;25.098;2023-04-25T14:04:35;14.50;99.90
6462;DHT22;3264;42.862;25.098;2023-04-25T14:07:03;14.10;99.90
6462;DHT22;3264;42.862;25.098;2023-04-25T14:09:32;13.80;99.90
6462;DHT22;3264;42.862;25.098;2023-04-25T14:12:02;13.60;99.90
6462;DHT22;3264;42.862;25.098;2023-04-25T14:14:30;13.20;99.90
6462;DHT22;3264;42.862;25.098;2023-04-25T14:16:58;13.20;99.90
6462;DHT22;3264;42.862;25.098;2023-04-25T14:19:26;12.70;99.90
6462;DHT22;3264;42.862;25.098;2023-04-25T14:21:56;12.60;99.90
6462;DHT22;3264;42.862;25.098;2023-04-25T14:24:24;12.70;99.90
6462;DHT22;3264;42.862;25.098;2023-04-25T14:26:54;12.40;99.90
6462;DHT22;3264;42.862;25.098;2023-04-25T14:29:23;12.70;99.90
6462;DHT22;3264;42.862;25.098;2023-04-25T14:31:53;12.80;99.90
6462;DHT22;3264;42.862;25.098;2023-04-25T14:34:20;12.90;99.90
6462;DHT22;3264;42.862;25.098;2023-04-25T14:36:49;12.70;99.90
6462;DHT22;3264;42.862;25.098;2023-04-25T14:39:17;12.70;99.90
6462;DHT22;3264;42.862;25.098;2023-04-25T14:41:44;12.80;99.90
6462;DHT22;3264;42.862;25.098;2023-04-25T14:44:13;12.80;99.90
6462;DHT22;3264;42.862;25.098;2023-04-25T14:46:43;12.90;99.90
6462;DHT22;3264;42.862;25.098;2023-04-25T14:49:12;13.00;99.90
6462;DHT22;3264;42.862;25.098;2023-04-25T14:51:40;13.40;99.90
6462;DHT22;3264;42.862;25.098;2023-04-25T14:54:09;13.20;99.90
6462;DHT22;3264;42.862;25.098;2023-04-25T14:56:38;13.80;99.90
6462;DHT22;3264;42.862;25.098;2023-04-25T14:59:06;13.90;99.90
6462;DHT22;3264;42.862;25.098;2023-04-25T15:01:34;14.10;99.90
6462;DHT22;3264;42.862;25.098;2023-04-25T15:04:03;13.80;99.90
6462;DHT22;3264;42.862;25.098;2023-04-25T15:06:33;13.70;99.90
6462;DHT22;3264;42.862;25.098;2023-04-25T15:09:01;13.60;99.90
6462;DHT22;3264;42.862;25.098;2023-04-25T15:11:29;13.50;99.90
6462;DHT22;3264;42.862;25.098;2023-04-25T15:13:57;13.90;99.90
6462;DHT22;3264;42.862;25.098;2023-04-25T15:16:25;13.80;99.90
6462;DHT22;3264;42.862;25.098;2023-04-25T15:18:53;13.60;99.90
6462;DHT22;3264;42.862;25.098;2023-04-25T15:21:23;13.60;99.90
6462;DHT22;3264;42.862;25.098;2023-04-25T15:23:52;13.50;99.90
6462;DHT22;3264;42.862;25.098;2023-04-25T15:26:21;13.20;99.90
6462;DHT22;3264;42.862;25.098;2023-04-25T15:28:48;13.40;99.90
6462;DHT22;3264;42.862;25.098;2023-04-25T15:31:18;13.60;99.90
6462;DHT22;3264;42.862;25.098;2023-04-25T15:33:46;13.50;99.90
6462;DHT22;3264;42.862;25.098;2023-04-25T15:36:14;13.50;99.90
6462;DHT22;3264;42.862;25.098;2023-04-25T15:38:45;13.30;99.90
6462;DHT22;3264;42.862;25.098;2023-04-25T15:41:14;13.30;99.90
6462;DHT22;3264;42.862;25.098;2023-04-25T15:43:43;13.40;99.90
6462;DHT22;3264;42.862;25.098;2023-04-25T15:46:12;13.70;99.90
6462;DHT22;3264;42.862;25.098;2023-04-25T15:48:39;13.80;99.90
6462;DHT22;3264;42.862;25.098;2023-04-25T15:51:07;14.10;99.90
6462;DHT22;3264;42.862;25.098;2023-04-25T15:53:37;14.10;99.90
6462;DHT22;3264;42.862;25.098;2023-04-25T15:56:10;14.10;99.90
6462;DHT22;3264;42.862;25.098;2023-04-25T15:58:38;13.80;99.90
6462;DHT22;3264;42.862;25.098;2023-04-25T16:01:06;13.70;99.90
6462;DHT22;3264;42.862;25.098;2023-04-25T16:03:34;13.50;99.90
6462;DHT22;3264;42.862;25.098;2023-04-25T16:06:03;13.40;99.90